Time;durP1;ratioP1;P1;durP2;ratioP2;P2;SDS_P1;SDS_P2;PMS_P1;PMS_P2;Temp;Humidity;BMP_temperature;BMP_pressure;BME280_temperature;BME280_humidity;BME280_pressure;Samples;Min_cycle;Max_cycle;Signal;HPM_P1;HPM_P2
2022/11/07 00:01:34;;;;;;;111.05;61.15;;;8.00;72.20;;;;;;5965732;23;117632;-82
2022/11/07 00:04:02;;;;;;;109.05;63.10;;;8.00;72.30;;;;;;5943568;23;115452;-80
2022/11/07 00:06:29;;;;;;;107.18;60.38;;;8.00;72.40;;;;;;5944129;23;114204;-79
2022/11/07 00:08:57;;;;;;;112.63;62.00;;;8.00;72.50;;;;;;5942344;23;115203;-79
2022/11/07 00:11:24;;;;;;;113.72;62.25;;;8.00;72.70;;;;;;5967327;23;114563;-80
2022/11/07 00:13:51;;;;;;;114.68;65.30;;;8.10;72.60;;;;;;5942752;23;114579;-80
2022/11/07 00:16:18;;;;;;;117.78;63.47;;;8.10;72.50;;;;;;5943318;23;114331;-80
2022/11/07 00:18:45;;;;;;;107.07;62.42;;;8.10;72.40;;;;;;5967237;23;115030;-80
2022/11/07 00:21:13;;;;;;;115.28;66.18;;;8.10;72.60;;;;;;5967270;23;115194;-80
2022/11/07 00:23:40;;;;;;;110.40;63.03;;;8.10;72.50;;;;;;5943184;23;114699;-80
2022/11/07 00:26:09;;;;;;;109.80;61.35;;;8.20;72.60;;;;;;5942672;23;114334;-79
2022/11/07 00:28:38;;;;;;;117.25;64.18;;;8.20;72.50;;;;;;5942604;23;114871;-80
2022/11/07 00:31:05;;;;;;;105.95;60.78;;;8.20;72.30;;;;;;5967405;23;114563;-80
2022/11/07 00:33:32;;;;;;;106.38;61.30;;;8.10;72.40;;;;;;5942614;23;114230;-80
2022/11/07 00:35:59;;;;;;;96.22;60.28;;;8.10;72.50;;;;;;5943118;23;114592;-80
2022/11/07 00:38:26;;;;;;;109.53;59.25;;;8.10;72.60;;;;;;5941493;23;115386;-80
2022/11/07 00:40:58;;;;;;;104.63;58.42;;;8.10;72.70;;;;;;5966984;23;114398;-80
2022/11/07 00:43:25;;;;;;;98.25;57.33;;;8.20;72.70;;;;;;5942068;23;114552;-80
2022/11/07 00:45:52;;;;;;;99.78;59.00;;;8.20;72.50;;;;;;5920378;23;114644;-80
2022/11/07 00:48:19;;;;;;;107.00;58.67;;;8.20;72.40;;;;;;5966689;23;115368;-79
2022/11/07 00:50:46;;;;;;;99.88;56.90;;;8.20;72.40;;;;;;5965262;23;117377;-81
2022/11/07 00:53:13;;;;;;;102.35;58.85;;;8.20;72.40;;;;;;5968206;23;114190;-80
2022/11/07 00:55:41;;;;;;;98.40;57.95;;;8.20;72.50;;;;;;5943771;23;114580;-81
2022/11/07 00:58:08;;;;;;;99.63;59.03;;;8.20;72.30;;;;;;5966581;23;114804;-80
2022/11/07 01:00:40;;;;;;;95.57;57.80;;;8.20;72.20;;;;;;5943003;23;114851;-80
2022/11/07 01:06:00;;;;;;;106.10;62.05;;;8.10;72.60;;;;;;5942874;23;114311;-81
2022/11/07 01:08:28;;;;;;;101.78;61.85;;;8.20;72.70;;;;;;5942150;23;115035;-81
2022/11/07 01:10:56;;;;;;;108.35;61.25;;;8.20;72.70;;;;;;5941969;23;114709;-81
2022/11/07 01:13:23;;;;;;;98.10;58.70;;;8.20;72.70;;;;;;5967648;23;114235;-80
2022/11/07 01:15:50;;;;;;;97.45;59.08;;;8.20;72.60;;;;;;5942869;23;114127;-80
2022/11/07 01:18:17;;;;;;;106.97;60.17;;;8.30;72.60;;;;;;5941861;23;114848;-81
2022/11/07 01:20:45;;;;;;;91.13;54.70;;;8.30;72.50;;;;;;5965810;23;115705;-81
2022/11/07 01:23:12;;;;;;;95.75;56.15;;;8.30;72.60;;;;;;5967725;23;114257;-80
2022/11/07 01:25:40;;;;;;;94.45;57.03;;;8.30;72.40;;;;;;5967754;23;114123;-82
2022/11/07 01:28:07;;;;;;;93.13;55.33;;;8.30;72.30;;;;;;5941586;23;114969;-80
2022/11/07 01:30:41;;;;;;;104.25;56.47;;;8.30;72.30;;;;;;5942182;23;114701;-80
2022/11/07 01:33:08;;;;;;;92.63;53.47;;;8.30;72.20;;;;;;5943058;23;114316;-81
2022/11/07 01:35:35;;;;;;;89.28;53.83;;;8.30;72.20;;;;;;5919898;23;114261;-81
2022/11/07 01:38:03;;;;;;;95.45;54.33;;;8.30;72.30;;;;;;5942025;23;115388;-81
2022/11/07 01:40:30;;;;;;;90.75;54.22;;;8.40;72.40;;;;;;5918651;23;114950;-81
2022/11/07 01:42:57;;;;;;;93.03;54.05;;;8.40;72.20;;;;;;5943284;23;114473;-81
2022/11/07 01:45:26;;;;;;;88.78;51.58;;;8.40;72.00;;;;;;5943582;23;114384;-81
2022/11/07 01:47:54;;;;;;;89.75;52.33;;;8.40;72.00;;;;;;5942230;23;114822;-81
2022/11/07 01:50:21;;;;;;;92.50;53.58;;;8.30;72.00;;;;;;5941952;23;114840;-80
2022/11/07 01:52:50;;;;;;;90.20;54.30;;;8.30;72.00;;;;;;5967084;23;114291;-80
2022/11/07 01:55:31;;;;;;;96.25;55.85;;;8.20;72.10;;;;;;5942700;23;114289;-80
2022/11/07 01:58:04;;;;;;;97.60;56.05;;;8.40;72.20;;;;;;5966564;23;114775;-80
2022/11/07 02:00:31;;;;;;;100.32;56.00;;;8.30;72.20;;;;;;5941825;23;114650;-80
2022/11/07 02:03:06;;;;;;;101.00;57.42;;;8.20;72.30;;;;;;5943421;23;114330;-80
2022/11/07 02:05:37;;;;;;;96.68;57.78;;;8.30;72.30;;;;;;5943203;23;114720;-80
2022/11/07 02:08:05;;;;;;;93.95;55.58;;;8.30;72.30;;;;;;5941750;23;116323;-80
2022/11/07 02:10:36;;;;;;;98.82;59.33;;;8.30;72.50;;;;;;5918663;23;115317;-80
2022/11/07 02:13:04;;;;;;;99.35;58.22;;;8.30;72.40;;;;;;5942931;23;114399;-80
2022/11/07 02:15:32;;;;;;;100.28;57.75;;;8.30;72.50;;;;;;5919732;23;114311;-80
2022/11/07 02:17:59;;;;;;;103.20;59.95;;;8.30;72.50;;;;;;5941069;23;115317;-81
2022/11/07 02:20:26;;;;;;;98.88;59.20;;;8.30;72.40;;;;;;5941563;23;114900;-81
2022/11/07 02:23:03;;;;;;;104.10;58.42;;;8.40;72.40;;;;;;5966237;23;114422;-81
2022/11/07 02:25:30;;;;;;;97.13;57.05;;;8.40;72.50;;;;;;5942762;23;114469;-80
2022/11/07 02:27:59;;;;;;;98.93;59.33;;;8.40;72.60;;;;;;5966933;23;114860;-81
2022/11/07 02:30:31;;;;;;;106.38;61.72;;;8.40;72.60;;;;;;5942281;23;114534;-79
2022/11/07 02:32:58;;;;;;;107.03;62.35;;;8.40;72.50;;;;;;5943274;23;114192;-80
2022/11/07 02:35:43;;;;;;;98.65;56.67;;;8.50;72.50;;;;;;5968383;23;114318;-80
2022/11/07 02:38:20;;;;;;;99.25;58.78;;;8.50;72.70;;;;;;5940782;23;118280;-80
2022/11/07 02:41:14;;;;;;;99.10;57.92;;;8.40;72.60;;;;;;5966290;23;114494;-80
2022/11/07 02:43:47;;;;;;;93.65;58.13;;;8.50;72.70;;;;;;5922980;23;114756;-80
2022/11/07 02:46:14;;;;;;;104.93;57.17;;;8.40;72.70;;;;;;5944523;23;114358;-80
2022/11/07 02:48:53;;;;;;;104.10;56.15;;;8.40;72.60;;;;;;5952493;23;114013;-80
2022/11/07 02:51:20;;;;;;;100.35;58.42;;;8.40;72.80;;;;;;5970101;23;114373;-80
2022/11/07 02:53:47;;;;;;;95.22;55.83;;;8.30;72.80;;;;;;5943241;23;114528;-80
2022/11/07 02:56:14;;;;;;;89.53;53.22;;;8.40;72.90;;;;;;5966345;23;114501;-80
2022/11/07 02:58:41;;;;;;;94.18;57.10;;;8.40;73.00;;;;;;5941528;23;115768;-81
2022/11/07 03:01:08;;;;;;;89.22;54.38;;;8.50;72.90;;;;;;5941895;23;114649;-81
2022/11/07 03:03:37;;;;;;;96.85;57.90;;;8.50;72.90;;;;;;5942406;23;114400;-80
2022/11/07 03:06:06;;;;;;;94.07;56.92;;;8.50;72.90;;;;;;5942653;23;114250;-80
2022/11/07 03:08:35;;;;;;;96.30;56.25;;;8.50;72.90;;;;;;5965801;23;114884;-81
2022/11/07 03:11:03;;;;;;;90.78;53.75;;;8.50;73.00;;;;;;5918649;23;114682;-82
2022/11/07 03:13:30;;;;;;;83.22;51.30;;;8.50;73.10;;;;;;5965740;23;114433;-81
2022/11/07 03:15:57;;;;;;;90.68;56.00;;;8.60;73.00;;;;;;5942466;23;114347;-82
2022/11/07 03:18:24;;;;;;;92.88;53.50;;;8.60;72.90;;;;;;5941463;23;114863;-81
2022/11/07 03:20:51;;;;;;;93.35;53.30;;;8.60;72.90;;;;;;5917477;23;117430;-81
2022/11/07 03:23:18;;;;;;;84.15;49.92;;;8.60;73.00;;;;;;5918783;23;114750;-81
2022/11/07 03:25:45;;;;;;;84.93;52.17;;;8.60;73.00;;;;;;5919080;23;114745;-81
2022/11/07 03:28:12;;;;;;;79.85;50.22;;;8.60;73.10;;;;;;5965656;23;114837;-81
2022/11/07 03:30:39;;;;;;;95.07;56.20;;;8.70;73.20;;;;;;5966024;23;115096;-82
2022/11/07 03:33:06;;;;;;;91.65;52.42;;;8.70;73.00;;;;;;5967441;23;114255;-82
2022/11/07 03:35:33;;;;;;;90.70;56.13;;;8.70;73.00;;;;;;5967870;23;114290;-81
2022/11/07 03:38:00;;;;;;;82.95;51.55;;;8.70;72.80;;;;;;5944036;23;114898;-81
2022/11/07 03:40:27;;;;;;;89.43;53.83;;;8.70;72.90;;;;;;5968200;23;114655;-81
2022/11/07 03:42:54;;;;;;;84.80;50.47;;;8.80;72.80;;;;;;5967806;23;114340;-81
2022/11/07 03:45:21;;;;;;;72.13;47.95;;;8.80;72.70;;;;;;5968111;23;114522;-81
2022/11/07 03:47:48;;;;;;;88.75;53.97;;;8.80;72.80;;;;;;5967049;23;114827;-81
2022/11/07 03:50:17;;;;;;;86.03;51.80;;;8.80;72.80;;;;;;5941980;23;114578;-82
2022/11/07 03:52:44;;;;;;;87.85;52.65;;;8.90;72.80;;;;;;5942567;23;114191;-81
2022/11/07 03:55:14;;;;;;;84.47;52.40;;;8.90;72.70;;;;;;5942933;23;114180;-81
2022/11/07 03:57:41;;;;;;;86.38;53.55;;;8.90;72.70;;;;;;5940987;23;114955;-81
2022/11/07 04:00:09;;;;;;;77.95;48.20;;;8.90;72.70;;;;;;5941414;23;114517;-81
2022/11/07 04:02:39;;;;;;;82.00;50.90;;;8.90;72.70;;;;;;5967759;23;114886;-81
2022/11/07 04:05:06;;;;;;;88.75;54.30;;;9.00;72.60;;;;;;5942414;23;114297;-81
2022/11/07 04:07:33;;;;;;;90.88;53.08;;;8.90;72.50;;;;;;5941689;23;115768;-82
2022/11/07 04:10:00;;;;;;;109.57;64.28;;;8.90;72.60;;;;;;5966194;23;114645;-80
2022/11/07 04:18:01;;;;;;;99.65;59.55;;;8.90;72.50;;;;;;5943653;23;115601;-81
2022/11/07 04:20:28;;;;;;;95.05;59.75;;;8.80;72.70;;;;;;5941091;23;114768;-80
2022/11/07 04:22:55;;;;;;;94.00;55.88;;;8.90;72.70;;;;;;5966427;23;114454;-80
2022/11/07 04:27:41;;;;;;;91.45;55.80;;;8.90;72.70;;;;;;5918756;23;114259;-80
2022/11/07 04:28:08;;;;;;;86.13;52.58;;;8.90;72.80;;;;;;5944674;23;114881;-80
2022/11/07 04:30:35;;;;;;;94.18;54.90;;;8.90;72.80;;;;;;5965810;23;114571;-80
2022/11/07 04:33:02;;;;;;;87.75;52.92;;;8.90;72.80;;;;;;5941528;23;114439;-81
2022/11/07 04:35:30;;;;;;;82.90;51.08;;;9.00;72.60;;;;;;5967108;23;114527;-80
2022/11/07 04:37:59;;;;;;;84.80;52.88;;;9.00;72.70;;;;;;5965597;23;114915;-79
2022/11/07 04:40:26;;;;;;;90.35;54.88;;;9.00;72.70;;;;;;5968611;23;114684;-80
2022/11/07 04:42:54;;;;;;;80.05;48.30;;;9.00;72.70;;;;;;5947783;23;114452;-81
2022/11/07 04:45:21;;;;;;;80.97;48.40;;;9.00;72.50;;;;;;5920951;23;114344;-80
2022/11/07 04:47:48;;;;;;;79.22;48.97;;;9.00;72.50;;;;;;5941899;23;114974;-81
2022/11/07 04:50:16;;;;;;;61.67;38.03;;;9.00;72.40;;;;;;5943001;23;114711;-81
2022/11/07 04:52:44;;;;;;;74.32;43.63;;;8.90;72.30;;;;;;5943865;23;114439;-81
2022/11/07 04:55:17;;;;;;;56.00;36.72;;;8.90;72.30;;;;;;5944013;23;114270;-81
2022/11/07 04:57:44;;;;;;;70.57;43.03;;;9.00;72.20;;;;;;5895356;23;114869;-81
2022/11/07 05:00:12;;;;;;;57.90;38.90;;;8.90;72.30;;;;;;5942267;23;114587;-81
2022/11/07 05:02:39;;;;;;;49.58;31.50;;;8.90;72.20;;;;;;5967001;23;114332;-81
2022/11/07 05:05:06;;;;;;;46.42;28.45;;;9.00;72.00;;;;;;5969259;23;114301;-81
2022/11/07 05:07:34;;;;;;;44.20;27.75;;;9.00;71.90;;;;;;5965932;23;114838;-81
2022/11/07 05:10:01;;;;;;;42.08;25.48;;;9.00;71.90;;;;;;5942326;23;115129;-82
2022/11/07 05:12:28;;;;;;;33.22;21.90;;;9.00;71.80;;;;;;5967808;23;114449;-81
2022/11/07 05:14:55;;;;;;;36.03;21.98;;;9.10;71.50;;;;;;5968768;23;114104;-81
2022/11/07 05:17:22;;;;;;;34.90;22.95;;;9.10;71.40;;;;;;5942519;23;115119;-81
2022/11/07 05:19:53;;;;;;;33.00;22.02;;;9.20;71.20;;;;;;5967243;23;114643;-81
2022/11/07 05:25:08;;;;;;;54.03;33.90;;;9.20;71.00;;;;;;5966337;23;114428;-81
2022/11/07 05:27:35;;;;;;;48.90;31.45;;;9.20;71.20;;;;;;5942157;23;115042;-80
2022/11/07 05:30:03;;;;;;;50.22;33.85;;;9.20;71.00;;;;;;5967759;23;114327;-81
2022/11/07 05:32:30;;;;;;;54.85;36.20;;;9.20;71.00;;;;;;5943344;23;114580;-80
2022/11/07 05:34:57;;;;;;;63.53;39.10;;;9.20;71.10;;;;;;5943481;23;114521;-80
2022/11/07 05:37:24;;;;;;;55.53;34.85;;;9.20;71.00;;;;;;5966555;23;114794;-80
2022/11/07 05:39:51;;;;;;;52.33;31.58;;;9.20;71.00;;;;;;5967256;23;114592;-80
2022/11/07 05:42:21;;;;;;;64.70;38.78;;;9.20;70.80;;;;;;5969077;23;114300;-81
2022/11/07 05:44:48;;;;;;;57.10;36.58;;;9.20;71.00;;;;;;5944129;23;114418;-81
2022/11/07 05:47:15;;;;;;;66.70;39.45;;;9.20;71.00;;;;;;5918896;23;116506;-80
2022/11/07 05:49:42;;;;;;;50.53;32.83;;;9.20;71.00;;;;;;5941759;23;115180;-81
2022/11/07 05:52:09;;;;;;;53.50;33.90;;;9.20;71.00;;;;;;5967607;23;114270;-81
2022/11/07 05:54:36;;;;;;;64.65;39.70;;;9.10;71.00;;;;;;5966232;23;114338;-80
2022/11/07 05:57:03;;;;;;;65.22;41.72;;;9.10;71.20;;;;;;5941380;23;115556;-81
2022/11/07 05:59:33;;;;;;;71.07;42.20;;;9.10;71.10;;;;;;5964765;23;117810;-81
2022/11/07 06:02:00;;;;;;;74.95;45.63;;;9.00;71.10;;;;;;5967275;23;114291;-81
2022/11/07 06:04:27;;;;;;;72.10;44.00;;;9.00;71.00;;;;;;5967072;23;114209;-80
2022/11/07 06:06:54;;;;;;;77.28;44.70;;;9.00;71.20;;;;;;5966572;23;115285;-80
2022/11/07 06:09:21;;;;;;;70.45;41.90;;;9.00;71.10;;;;;;5941815;23;114579;-79
2022/11/07 06:11:48;;;;;;;80.97;45.72;;;9.10;71.10;;;;;;5967760;23;114285;-80
2022/11/07 06:14:18;;;;;;;74.95;45.13;;;9.10;71.10;;;;;;5967494;23;114375;-80
2022/11/07 06:16:45;;;;;;;75.63;42.88;;;9.10;71.10;;;;;;5964600;23;118524;-79
2022/11/07 06:19:19;;;;;;;73.35;42.97;;;9.10;71.00;;;;;;5942148;23;114687;-80
2022/11/07 06:21:46;;;;;;;76.07;43.00;;;9.20;71.10;;;;;;5967850;23;114101;-80
2022/11/07 06:24:13;;;;;;;71.32;43.17;;;9.10;71.20;;;;;;5942713;23;114176;-80
2022/11/07 06:26:41;;;;;;;59.03;38.92;;;9.10;71.10;;;;;;5965817;23;114831;-80
2022/11/07 06:29:08;;;;;;;54.95;32.92;;;9.10;70.90;;;;;;5965016;23;115920;-80
2022/11/07 06:31:35;;;;;;;43.42;25.95;;;9.00;70.80;;;;;;5965735;23;114331;-80
2022/11/07 06:34:04;;;;;;;52.65;31.52;;;8.90;70.70;;;;;;5967410;23;115163;-81
2022/11/07 06:36:31;;;;;;;36.88;22.95;;;9.00;70.90;;;;;;5966617;23;114767;-80
2022/11/07 06:38:58;;;;;;;35.75;21.95;;;8.90;70.40;;;;;;5965976;23;114570;-79
2022/11/07 06:41:25;;;;;;;25.90;14.93;;;9.00;70.10;;;;;;5941813;23;114326;-79
2022/11/07 06:43:52;;;;;;;14.40;8.65;;;9.10;69.20;;;;;;5967438;23;114504;-81
2022/11/07 06:46:21;;;;;;;10.68;7.55;;;9.10;68.60;;;;;;5939518;23;114840;-80
2022/11/07 06:48:48;;;;;;;11.02;6.25;;;9.20;68.10;;;;;;5965544;23;114613;-79
2022/11/07 06:51:15;;;;;;;10.48;5.55;;;9.20;67.70;;;;;;5941428;23;114897;-80
2022/11/07 06:53:42;;;;;;;7.75;5.13;;;9.30;67.30;;;;;;5941443;23;114776;-80
2022/11/07 06:56:12;;;;;;;9.07;6.00;;;9.30;67.00;;;;;;5965499;23;114823;-79
2022/11/07 06:58:39;;;;;;;9.75;5.22;;;9.40;66.60;;;;;;5935639;23;114534;-79
2022/11/07 07:01:11;;;;;;;10.80;6.55;;;9.50;66.50;;;;;;5959818;23;115006;-79
2022/11/07 07:03:39;;;;;;;9.18;5.13;;;9.60;66.40;;;;;;5937251;23;115046;-80
2022/11/07 07:06:08;;;;;;;12.10;7.20;;;9.60;66.10;;;;;;5959118;23;115607;-81
2022/11/07 07:08:37;;;;;;;9.38;6.25;;;9.70;66.10;;;;;;5959098;23;114756;-81
2022/11/07 07:11:06;;;;;;;9.65;5.93;;;9.70;65.80;;;;;;5938605;23;114270;-81
2022/11/07 07:13:33;;;;;;;8.88;5.55;;;9.70;65.60;;;;;;5938207;23;114493;-80
2022/11/07 07:16:00;;;;;;;14.73;8.93;;;9.80;65.40;;;;;;5936362;23;114865;-81
2022/11/07 07:18:28;;;;;;;10.52;6.15;;;9.80;65.60;;;;;;5937146;23;114702;-81
2022/11/07 07:21:07;;;;;;;9.45;5.72;;;9.80;65.30;;;;;;5938601;23;114630;-80
2022/11/07 07:23:35;;;;;;;9.45;6.18;;;9.90;65.10;;;;;;5958766;23;114305;-80
2022/11/07 07:26:02;;;;;;;10.50;5.72;;;9.90;65.20;;;;;;5959711;23;115541;-81
2022/11/07 07:28:29;;;;;;;13.68;7.90;;;9.90;64.60;;;;;;5938000;23;114573;-81
2022/11/07 07:31:18;;;;;;;10.35;6.68;;;9.90;65.40;;;;;;5961046;23;114629;-82
2022/11/07 07:33:45;;;;;;;12.57;6.45;;;10.00;65.60;;;;;;5961614;23;114471;-81
2022/11/07 07:36:12;;;;;;;12.07;6.35;;;10.00;65.90;;;;;;5937393;23;114811;-81
2022/11/07 07:38:46;;;;;;;9.40;5.20;;;10.00;66.10;;;;;;5937825;23;114835;-81
2022/11/07 07:41:13;;;;;;;7.22;4.72;;;10.10;65.00;;;;;;5938336;23;114328;-82
2022/11/07 07:43:41;;;;;;;7.75;5.78;;;10.00;64.50;;;;;;5937382;23;114150;-81
2022/11/07 07:46:09;;;;;;;7.45;5.10;;;10.10;64.00;;;;;;5959950;23;115085;-81
2022/11/07 07:48:36;;;;;;;14.93;9.73;;;10.10;63.70;;;;;;5960258;23;114896;-81
2022/11/07 07:51:03;;;;;;;11.75;6.50;;;10.10;64.30;;;;;;5939639;23;114360;-81
2022/11/07 07:53:31;;;;;;;11.95;7.93;;;10.10;64.10;;;;;;5939012;23;114400;-81
2022/11/07 07:55:59;;;;;;;10.35;5.60;;;10.10;64.30;;;;;;5936947;23;114858;-81
2022/11/07 07:58:26;;;;;;;13.00;7.07;;;10.10;64.00;;;;;;5958539;23;114926;-81
2022/11/07 08:00:53;;;;;;;11.70;7.55;;;10.20;64.00;;;;;;5960482;23;114711;-80
2022/11/07 08:03:20;;;;;;;9.68;6.18;;;10.20;63.60;;;;;;5961009;23;114820;-80
2022/11/07 08:05:55;;;;;;;10.98;7.05;;;10.20;63.70;;;;;;5936931;23;114850;-80
2022/11/07 08:08:22;;;;;;;9.07;6.30;;;10.30;63.10;;;;;;5937349;23;114846;-81
2022/11/07 08:10:53;;;;;;;10.30;6.35;;;10.20;63.20;;;;;;5960471;23;114588;-81
2022/11/07 08:13:24;;;;;;;9.15;5.13;;;10.30;62.80;;;;;;5960153;23;114580;-81
2022/11/07 08:15:51;;;;;;;8.80;5.13;;;10.30;62.00;;;;;;5960192;23;115002;-81
2022/11/07 08:18:20;;;;;;;10.18;5.93;;;10.30;61.90;;;;;;5937599;23;114520;-80
2022/11/07 08:20:52;;;;;;;9.18;4.75;;;10.30;61.70;;;;;;5940105;23;114082;-81
2022/11/07 08:23:19;;;;;;;9.45;5.43;;;10.40;61.70;;;;;;5962412;23;114290;-81
2022/11/07 08:25:54;;;;;;;8.35;5.80;;;10.40;61.80;;;;;;5937135;23;114764;-81
2022/11/07 08:28:22;;;;;;;10.00;5.65;;;10.40;61.80;;;;;;5938637;23;114647;-80
2022/11/07 08:31:06;;;;;;;8.93;5.10;;;10.40;61.70;;;;;;5937916;23;114374;-81
2022/11/07 08:33:34;;;;;;;11.93;5.75;;;10.60;61.50;;;;;;5961288;23;114512;-81
2022/11/07 08:36:01;;;;;;;11.77;5.68;;;10.60;61.90;;;;;;5938639;23;114821;-81
2022/11/07 08:38:29;;;;;;;9.82;5.55;;;10.60;61.50;;;;;;5960639;23;115632;-80
2022/11/07 08:40:56;;;;;;;10.00;5.47;;;10.70;61.10;;;;;;5939863;23;114473;-80
2022/11/07 08:43:23;;;;;;;7.97;4.35;;;10.70;61.20;;;;;;5867950;23;116613;-80
2022/11/07 08:45:51;;;;;;;6.93;4.47;;;10.70;60.50;;;;;;5960347;23;114887;-81
2022/11/07 08:48:18;;;;;;;7.05;4.63;;;10.80;60.40;;;;;;5939127;23;115169;-80
2022/11/07 08:50:45;;;;;;;7.50;5.28;;;10.80;60.10;;;;;;5961751;23;114336;-80
2022/11/07 08:53:12;;;;;;;7.40;4.43;;;10.80;60.00;;;;;;5939585;23;114261;-81
2022/11/07 08:55:39;;;;;;;5.88;4.00;;;10.80;59.80;;;;;;5936334;23;114906;-81
2022/11/07 08:58:07;;;;;;;10.07;4.85;;;10.80;59.80;;;;;;5959901;23;114522;-79
2022/11/07 09:00:34;;;;;;;6.28;3.50;;;10.80;59.90;;;;;;5938732;23;114250;-80
2022/11/07 09:03:02;;;;;;;10.18;6.18;;;10.80;59.50;;;;;;5938233;23;114221;-81
2022/11/07 09:05:50;;;;;;;9.93;4.60;;;10.80;59.80;;;;;;5937374;23;115165;-81
2022/11/07 09:08:17;;;;;;;8.93;5.15;;;10.90;59.40;;;;;;5937147;23;114539;-81
2022/11/07 09:10:44;;;;;;;7.57;3.83;;;10.80;59.50;;;;;;5939584;23;115027;-80
2022/11/07 09:13:13;;;;;;;9.65;6.60;;;10.90;59.20;;;;;;5939221;23;114379;-80
2022/11/07 09:15:41;;;;;;;7.97;4.30;;;10.90;59.20;;;;;;5938124;23;114902;-80
2022/11/07 09:18:16;;;;;;;9.32;6.40;;;11.00;58.70;;;;;;5937080;23;115762;-80
2022/11/07 09:20:43;;;;;;;9.45;4.88;;;11.00;59.30;;;;;;5959344;23;114497;-81
2022/11/07 09:23:10;;;;;;;12.38;6.30;;;11.10;59.10;;;;;;5938418;23;114456;-81
2022/11/07 09:25:37;;;;;;;11.15;5.13;;;11.20;59.30;;;;;;5937924;23;115321;-81
2022/11/07 09:28:04;;;;;;;8.38;4.65;;;11.20;59.20;;;;;;5938049;23;114604;-81
2022/11/07 09:30:31;;;;;;;6.65;4.40;;;11.20;58.90;;;;;;5939328;23;114602;-81
2022/11/07 09:32:58;;;;;;;7.72;4.60;;;11.30;58.60;;;;;;5938628;23;114333;-81
2022/11/07 09:35:25;;;;;;;6.10;3.25;;;11.30;58.20;;;;;;5938283;23;114956;-81
2022/11/07 09:37:52;;;;;;;6.30;3.00;;;11.40;57.10;;;;;;5959526;23;114640;-81
2022/11/07 09:40:50;;;;;;;6.05;3.28;;;11.40;56.80;;;;;;5937894;23;114432;-81
2022/11/07 09:43:39;;;;;;;8.30;4.13;;;11.40;56.60;;;;;;5939018;23;114733;-81
2022/11/07 09:46:23;;;;;;;7.20;2.92;;;11.40;56.30;;;;;;5935756;23;115415;-80
2022/11/07 09:48:53;;;;;;;6.45;3.05;;;11.50;56.00;;;;;;5959550;23;114631;-80
2022/11/07 09:51:31;;;;;;;6.97;3.15;;;11.50;56.30;;;;;;5914466;23;114502;-81
2022/11/07 09:54:00;;;;;;;5.03;3.00;;;11.50;55.90;;;;;;5960446;23;114314;-81
2022/11/07 09:56:27;;;;;;;5.78;3.08;;;11.50;56.00;;;;;;5936323;23;114915;-81
2022/11/07 09:58:56;;;;;;;7.53;3.35;;;11.60;55.80;;;;;;5938407;23;114833;-80
2022/11/07 10:01:27;;;;;;;4.55;2.80;;;11.60;55.60;;;;;;5960978;23;114586;-80
2022/11/07 10:03:54;;;;;;;4.80;3.03;;;11.60;55.70;;;;;;5938303;23;117627;-79
2022/11/07 10:06:51;;;;;;;7.35;3.13;;;11.60;56.10;;;;;;5937172;23;114889;-80
2022/11/07 10:09:24;;;;;;;7.03;3.63;;;11.70;55.50;;;;;;5957789;23;114835;-81
2022/11/07 10:12:01;;;;;;;7.35;3.20;;;11.70;55.70;;;;;;5937992;23;114608;-81
2022/11/07 10:14:40;;;;;;;6.53;3.40;;;11.70;55.90;;;;;;5960817;23;115249;-81
2022/11/07 10:17:19;;;;;;;6.28;3.50;;;11.70;56.10;;;;;;5937224;23;114948;-81
2022/11/07 10:20:04;;;;;;;8.05;3.30;;;11.70;55.60;;;;;;5936588;23;116180;-80
2022/11/07 10:22:48;;;;;;;7.43;3.20;;;11.60;55.50;;;;;;5938513;23;114523;-81
2022/11/07 10:25:38;;;;;;;5.25;3.35;;;11.50;55.70;;;;;;5939123;23;114572;-80
2022/11/07 10:28:06;;;;;;;7.20;3.92;;;11.40;55.80;;;;;;5959726;23;114838;-81
2022/11/07 10:30:33;;;;;;;8.27;3.92;;;11.30;56.20;;;;;;5938419;23;114600;-82
2022/11/07 10:33:09;;;;;;;5.10;3.53;;;11.30;56.10;;;;;;5939119;23;114386;-81
2022/11/07 10:35:38;;;;;;;7.53;4.10;;;11.30;56.20;;;;;;5938553;23;115373;-81
2022/11/07 10:38:16;;;;;;;9.52;3.80;;;11.30;56.60;;;;;;5936816;23;115089;-82
2022/11/07 10:40:43;;;;;;;8.50;3.92;;;11.40;56.70;;;;;;5958874;23;114616;-81
2022/11/07 10:43:19;;;;;;;7.97;3.92;;;11.40;56.40;;;;;;5960841;23;114330;-81
2022/11/07 10:45:46;;;;;;;6.68;3.80;;;11.40;56.30;;;;;;5960638;23;114331;-82
2022/11/07 10:48:13;;;;;;;6.82;3.95;;;11.30;56.70;;;;;;5959162;23;114932;-81
2022/11/07 10:50:50;;;;;;;7.70;4.25;;;11.40;56.80;;;;;;5937733;23;114643;-81
2022/11/07 10:53:20;;;;;;;8.57;4.00;;;11.40;56.90;;;;;;5938111;23;114253;-81
2022/11/07 10:55:48;;;;;;;10.45;4.45;;;11.50;56.40;;;;;;5937131;23;114438;-80
2022/11/07 10:58:17;;;;;;;7.88;3.72;;;11.40;56.60;;;;;;5936025;23;115193;-81
2022/11/07 11:01:04;;;;;;;7.35;3.80;;;11.40;56.80;;;;;;5937405;23;116761;-82
2022/11/07 11:03:53;;;;;;;6.63;3.90;;;11.40;56.60;;;;;;5958138;23;114691;-80
2022/11/07 11:06:32;;;;;;;6.45;3.55;;;11.40;56.80;;;;;;5956468;23;116013;-80
2022/11/07 11:08:59;;;;;;;8.32;3.75;;;11.40;57.00;;;;;;5958280;23;115437;-80
2022/11/07 11:11:31;;;;;;;10.70;4.10;;;11.40;57.00;;;;;;5937138;23;114849;-80
2022/11/07 11:14:24;;;;;;;5.78;3.80;;;11.50;56.60;;;;;;5936627;23;114498;-81
2022/11/07 11:16:54;;;;;;;6.95;3.63;;;11.70;56.80;;;;;;5936419;23;114738;-81
2022/11/07 11:19:39;;;;;;;5.70;3.60;;;11.70;56.80;;;;;;5959269;23;114990;-80
2022/11/07 11:22:16;;;;;;;7.95;3.72;;;11.70;56.30;;;;;;5936106;23;114868;-82
2022/11/07 11:24:43;;;;;;;5.97;3.70;;;11.80;56.70;;;;;;5961067;23;114830;-82
2022/11/07 11:27:16;;;;;;;5.78;3.38;;;11.80;56.60;;;;;;5938067;23;114364;-82
2022/11/07 11:29:54;;;;;;;7.57;3.58;;;11.80;56.20;;;;;;5957975;23;114982;-80
2022/11/07 11:32:29;;;;;;;6.88;4.38;;;11.90;56.20;;;;;;5935756;23;115625;-81
2022/11/07 11:35:17;;;;;;;6.72;3.63;;;11.90;56.40;;;;;;5957859;23;114182;-81
2022/11/07 11:37:50;;;;;;;7.57;3.75;;;11.90;56.50;;;;;;5936379;23;114399;-81
2022/11/07 11:40:21;;;;;;;7.50;3.38;;;11.90;56.50;;;;;;5935976;23;118765;-82
2022/11/07 11:43:02;;;;;;;6.30;3.70;;;11.90;56.30;;;;;;5935908;23;116335;-82
2022/11/07 11:45:36;;;;;;;5.30;3.25;;;12.00;56.50;;;;;;5936173;23;114394;-82
2022/11/07 11:48:45;;;;;;;6.03;3.33;;;12.00;56.10;;;;;;5936570;23;114386;-82
2022/11/07 11:51:30;;;;;;;5.85;3.08;;;12.00;55.80;;;;;;5936360;23;115918;-81
2022/11/07 11:53:59;;;;;;;5.35;2.90;;;12.00;55.70;;;;;;5956716;23;114596;-81
2022/11/07 11:56:58;;;;;;;6.72;3.25;;;12.00;55.40;;;;;;5960974;23;114817;-80
2022/11/07 11:59:45;;;;;;;5.53;3.30;;;12.00;55.60;;;;;;5935537;23;114974;-81
2022/11/07 12:02:45;;;;;;;6.80;3.28;;;11.90;55.40;;;;;;5957778;23;114942;-81
2022/11/07 12:05:47;;;;;;;6.03;3.35;;;11.90;55.70;;;;;;5957349;23;114684;-81
2022/11/07 12:08:20;;;;;;;6.50;3.38;;;11.90;55.80;;;;;;5938785;23;114347;-82
2022/11/07 12:10:53;;;;;;;5.67;3.40;;;11.80;55.90;;;;;;5938048;23;114519;-82
2022/11/07 12:13:33;;;;;;;5.32;2.72;;;11.80;55.80;;;;;;5937286;23;115453;-82
2022/11/07 12:16:38;;;;;;;5.97;3.78;;;11.90;55.80;;;;;;5935509;23;117939;-82
2022/11/07 12:19:27;;;;;;;6.35;3.30;;;11.90;55.90;;;;;;5937426;23;114225;-82
2022/11/07 12:22:13;;;;;;;5.63;3.60;;;11.80;56.00;;;;;;5935764;23;114457;-81
2022/11/07 12:24:49;;;;;;;6.25;2.63;;;11.90;56.10;;;;;;5957878;23;115288;-81
2022/11/07 12:27:35;;;;;;;4.57;2.92;;;12.00;55.60;;;;;;5958086;23;114572;-81
2022/11/07 12:30:08;;;;;;;8.20;3.22;;;12.00;55.70;;;;;;5937943;23;114443;-81
2022/11/07 12:33:08;;;;;;;9.35;3.72;;;12.10;55.40;;;;;;5937355;23;114561;-81
2022/11/07 12:35:59;;;;;;;5.13;3.03;;;12.20;55.40;;;;;;5936149;23;114896;-82
2022/11/07 12:38:35;;;;;;;6.15;3.30;;;12.20;55.30;;;;;;5934989;23;115796;-82
2022/11/07 12:41:29;;;;;;;7.28;3.95;;;12.10;54.90;;;;;;5936332;23;114641;-82
2022/11/07 12:44:32;;;;;;;6.20;3.60;;;12.20;54.80;;;;;;5959869;23;114214;-81
2022/11/07 12:47:00;;;;;;;5.00;3.42;;;12.10;54.70;;;;;;5936021;23;115465;-82
2022/11/07 12:49:57;;;;;;;7.07;3.20;;;12.00;54.90;;;;;;5912426;23;114924;-81
2022/11/07 12:53:04;;;;;;;5.97;3.10;;;12.00;55.00;;;;;;5957863;23;114666;-81
2022/11/07 12:55:56;;;;;;;6.43;3.63;;;12.00;55.00;;;;;;5937816;23;114379;-80
2022/11/07 12:58:24;;;;;;;7.05;4.05;;;12.00;55.10;;;;;;5903769;23;1329366;-81
2022/11/07 13:00:54;;;;;;;6.97;3.80;;;12.00;55.00;;;;;;5937623;23;115125;-81
2022/11/07 13:03:43;;;;;;;6.53;3.97;;;12.00;55.00;;;;;;5939977;23;114748;-81